Stations météo

Publicité
Chateau d´Oex, Suisse (6627): Température de l'air & dewpoint: 19.06.2018 15:00:00 - 25.06.2018 15:00:00 (CEST)Chateau d´Oex, Suisse (6627): Température de l'air 5cm: 19.06.2018 15:00:00 - 25.06.2018 15:00:00 (CEST)Chateau d´Oex, Suisse (6627): Vitesse du vent & gusts: 19.06.2018 15:00:00 - 25.06.2018 15:00:00 (CEST)Chateau d´Oex, Suisse (6627): Direction du vent: 19.06.2018 15:00:00 - 25.06.2018 15:00:00 (CEST)Chateau d´Oex, Suisse (6627): Ensoleillement: 19.06.2018 15:00:00 - 25.06.2018 15:00:00 (CEST)Chateau d´Oex, Suisse (6627): Quantités de précipitations: 19.06.2018 15:00:00 - 25.06.2018 15:00:00 (CEST)
Date & Time tt [°C] td [°C] tt 5cm [°C] ff [km/h] ff [knt] fx [km/h] fx [knt] dd sd [min] rr [mm]
25.06.2018 15:00:00 20,2 7,2 25,7 2 1 25 14 NNW 41 0,0
25.06.2018 14:00:00 21,4 7,6 28,7 12 6 27 15 E 55 0,0
25.06.2018 13:00:00 20,1 5,9 26,6 9 5 28 15 SE 51 0,0
25.06.2018 12:00:00 18,1 9,2 24,5 10 5 23 12 SSW 49 0,0
25.06.2018 11:00:00 16,6 9,1 23,4 9 5 17 9 SSW 42 0,0
25.06.2018 10:00:00 14,5 8,5 21,5 7 4 12 7 S 60 0,0
25.06.2018 09:00:00 12,2 9,2 16,5 1 1 5 3 SE 60 0,0
25.06.2018 08:00:00 9,5 7,8 9,5 2 1 6 3 SE 35 0,0
25.06.2018 07:00:00 8,4 7,4 6,8 0 0 5 3 ENE 0 0,0
25.06.2018 06:00:00 8,5 7,5 7,4 3 2 6 3 NNW 0 0,0
25.06.2018 05:00:00 8,2 7,4 7,3 1 1 6 3 NNW 0 0,0
25.06.2018 04:00:00 7,7 6,7 6,3 4 2 6 4 N 0 0,0
25.06.2018 03:00:00 9,2 7,5 6,5 3 2 8 4 NNE 0 0,0
25.06.2018 02:00:00 10,0 7,6 7,3 3 2 8 4 NE 0 0,0
25.06.2018 01:00:00 10,2 7,7 8,4 6 4 10 5 N 0 0,0
25.06.2018 00:00:00 10,8 8,0 9,3 8 4 11 6 N 0 0,0
24.06.2018 23:00:00 12,5 7,3 10,4 6 4 11 6 N 0 0,0
24.06.2018 22:00:00 13,0 7,7 11,1 3 2 9 5 ENE 0 0,0
24.06.2018 21:00:00 15,4 6,7 12,6 3 2 12 7 SSE 0 0,0
24.06.2018 20:00:00 16,4 7,2 15,1 5 3 18 10 WSW 10 0,0
24.06.2018 19:00:00 17,7 7,1 19,1 11 6 32 17 S 4 0,0
24.06.2018 18:00:00 18,8 8,1 20,9 17 9 30 16 NW 36 0,0
24.06.2018 17:00:00 20,6 7,3 25,5 11 6 25 13 SW 51 0,0
24.06.2018 16:00:00 19,9 5,2 27,4 14 8 36 19 WSW 33 0,0
24.06.2018 15:00:00 20,1 9,2 25,2 16 8 31 17 SW 44 0,0
24.06.2018 14:00:00 19,0 9,2 24,6 15 8 26 14 SW 31 0,0
24.06.2018 13:00:00 16,5 8,8 17,9 7 4 23 12 S 25 0,0
24.06.2018 12:00:00 16,4 8,9 22,4 11 6 19 10 S 60 0,0
24.06.2018 11:00:00 14,9 7,4 21,2 8 4 17 9 S 60 0,0
24.06.2018 10:00:00 12,3 7,0 14,9 2 1 6 3 WSW 1 0,0
24.06.2018 09:00:00 11,3 6,5 14,8 3 1 4 2 SW 6 0,0
24.06.2018 08:00:00 10,1 7,0 10,9 1 0 4 2 WSW 0 0,0
24.06.2018 07:00:00 9,0 6,2 8,7 1 0 5 3 WNW 0 0,0
24.06.2018 06:00:00 8,5 6,5 7,3 0 0 6 3 NNE 0 0,0
24.06.2018 05:00:00 8,6 6,0 7,1 3 2 8 4 N 0 0,0
24.06.2018 04:00:00 8,4 6,4 7,1 3 2 6 4 N 0 0,0
24.06.2018 03:00:00 8,5 5,5 6,4 3 2 9 5 E 0 0,0
24.06.2018 02:00:00 8,6 5,9 6,5 5 3 9 5 NNW 0 0,0
24.06.2018 01:00:00 9,8 5,8 7,2 6 3 10 5 N 0 0,0
24.06.2018 00:00:00 9,7 6,4 7,7 3 2 13 7 NNW 0 0,0
23.06.2018 23:00:00 10,7 6,6 8,7 8 4 12 7 N 0 0,0
23.06.2018 22:00:00 11,6 6,9 9,5 5 3 11 6 N 0 0,0
23.06.2018 21:00:00 12,7 7,9 11,3 4 2 11 6 N 0 0,0
23.06.2018 20:00:00 15,3 6,3 13,2 2 1 15 8 S 21 0,0
23.06.2018 19:00:00 17,9 6,6 20,5 10 5 27 15 WSW 60 0,0
23.06.2018 18:00:00 18,8 6,2 22,7 13 7 26 14 W 60 0,0
23.06.2018 17:00:00 18,8 7,8 24,1 12 6 29 16 SW 60 0,0
23.06.2018 16:00:00 19,2 7,8 24,5 15 8 31 17 SW 60 0,0
23.06.2018 15:00:00 19,8 9,8 24,6 13 7 33 18 SW 60 0,0
23.06.2018 14:00:00 18,6 9,0 23,4 16 8 31 17 SW 60 0,0
23.06.2018 13:00:00 17,5 7,4 22,7 11 6 24 13 SW 60 0,0
23.06.2018 12:00:00 16,4 7,5 20,9 12 7 20 11 S 60 0,0
23.06.2018 11:00:00 14,1 4,3 19,7 9 5 16 9 SSW 60 0,0
23.06.2018 10:00:00 12,1 5,1 19,1 4 2 10 6 SW 60 0,0
23.06.2018 09:00:00 10,4 5,8 13,7 2 1 5 3 SE 60 0,0
23.06.2018 08:00:00 7,7 4,0 7,4 2 1 7 4 S 42 0,0
23.06.2018 07:00:00 5,6 3,8 3,6 4 2 9 5 N 0 0,0
23.06.2018 06:00:00 5,0 3,6 3,3 5 3 8 4 N 0 0,0
23.06.2018 05:00:00 5,4 3,9 3,4 4 2 8 4 N 0 0,0
23.06.2018 04:00:00 5,9 4,1 3,5 4 2 8 4 N 0 0,0
23.06.2018 03:00:00 6,7 3,9 3,9 1 1 7 4 N 0 0,0
23.06.2018 02:00:00 7,3 4,1 4,3 2 1 9 5 N 0 0,0
23.06.2018 01:00:00 7,4 4,5 5,2 4 2 9 5 N 0 0,0
23.06.2018 00:00:00 8,2 4,6 6,1 7 4 10 5 N 0 0,0
22.06.2018 23:00:00 9,0 4,6 6,7 4 2 9 5 NNE 0 0,0
22.06.2018 22:00:00 10,8 3,7 7,8 5 3 10 5 ENE 0 0,0
22.06.2018 21:00:00 11,6 5,5 9,8 8 4 12 7 N 0 0,0
22.06.2018 20:00:00 13,9 3,9 11,7 2 1 24 13 W 21 0,0
22.06.2018 19:00:00 16,4 3,6 19,8 7 4 32 17 NW 60 0,0
22.06.2018 18:00:00 17,2 3,0 21,8 17 9 35 19 NW 60 0,0
22.06.2018 17:00:00 18,7 4,8 23,2 16 9 34 18 NW 58 0,0
22.06.2018 16:00:00 18,3 5,1 23,4 18 10 34 19 NW 59 0,0
22.06.2018 15:00:00 18,0 7,1 23,0 12 7 30 16 SW 59 0,0
22.06.2018 14:00:00 18,0 8,4 23,5 13 7 30 16 SW 60 0,0
22.06.2018 13:00:00 17,0 8,4 22,1 14 7 26 14 SW 60 0,0
22.06.2018 12:00:00 15,5 7,9 20,5 14 8 24 13 S 58 0,0
22.06.2018 11:00:00 13,9 7,2 19,7 11 6 19 11 SSW 38 0,0
22.06.2018 10:00:00 12,4 7,0 14,3 10 5 21 11 S 48 0,0
22.06.2018 09:00:00 12,3 7,1 15,5 10 6 16 9 S 41 0,0
22.06.2018 08:00:00 11,5 7,0 12,7 4 2 13 7 S 0 0,0
22.06.2018 07:00:00 11,9 7,6 12,1 4 2 9 5 S 0 0,0
22.06.2018 06:00:00 12,2 8,5 11,8 2 1 12 7 SSW 0 0,0
22.06.2018 05:00:00 12,8 9,4 12,4 7 4 16 9 S 0 0,0
22.06.2018 04:00:00 13,4 10,4 12,7 8 5 16 9 S 0 0,0
22.06.2018 03:00:00 13,9 11,4 12,8 5 3 9 5 ESE 0 0,0
22.06.2018 02:00:00 14,2 11,9 12,6 2 1 10 6 SE 0 0,0
22.06.2018 01:00:00 15,3 12,1 13,6 2 1 14 8 SSE 0 0,0
22.06.2018 00:00:00 16,1 12,3 14,7 6 4 15 8 S 0 0,0
21.06.2018 23:00:00 17,4 12,4 16,2 8 4 29 15 SW 0 0,0
21.06.2018 22:00:00 18,7 11,8 17,4 14 8 29 16 NW 0 0,0
21.06.2018 21:00:00 19,7 11,7 17,6 5 3 31 17 WNW 0 0,0
21.06.2018 20:00:00 20,8 11,9 19,7 19 10 35 19 NNW 3 0,0
21.06.2018 19:00:00 22,1 12,2 21,9 13 7 36 20 NNW 36 0,0
21.06.2018 18:00:00 23,6 8,8 24,8 12 6 30 16 WSW 53 0,0
21.06.2018 17:00:00 25,2 7,9 28,6 15 8 30 16 WSW 60 0,0
21.06.2018 16:00:00 24,8 7,8 29,3 14 7 30 16 SW 60 0,0
21.06.2018 15:00:00 24,8 9,5 29,4 17 9 34 18 SW 60 0,0
21.06.2018 14:00:00 24,5 10,6 29,4 17 9 30 16 WSW 60 0,0
21.06.2018 13:00:00 24,1 10,4 29,0 11 6 25 13 SSW 60 0,0
21.06.2018 12:00:00 23,6 10,5 27,4 12 7 31 17 SSW 60 0,0
21.06.2018 11:00:00 23,0 11,5 27,3 10 5 19 11 SW 60 0,0
21.06.2018 10:00:00 20,2 14,8 25,0 4 2 7 4 SSW 60 0,0
21.06.2018 09:00:00 17,4 14,2 19,5 1 0 6 3 ESE 60 0,0
21.06.2018 08:00:00 14,9 13,2 15,2 2 1 4 2 N 39 0,0
21.06.2018 07:00:00 13,2 12,5 12,4 1 0 4 2 E 0 0,0
21.06.2018 06:00:00 12,4 11,8 11,1 1 1 5 3 NNE 0 0,0
21.06.2018 05:00:00 12,6 12,0 11,0 1 0 5 3 SE 0 0,0
21.06.2018 04:00:00 12,7 12,2 11,6 1 1 4 2 NNW 0 0,0
21.06.2018 03:00:00 13,4 12,6 12,1 1 1 5 3 NNW 0 0,0
21.06.2018 02:00:00 14,4 13,3 12,4 1 1 5 3 ESE 0 0,0
21.06.2018 01:00:00 14,8 13,2 12,8 3 2 8 4 NNE 0 0,0
21.06.2018 00:00:00 15,6 13,9 13,4 3 1 9 5 ENE 0 0,0
20.06.2018 23:00:00 15,5 13,7 13,9 3 2 10 5 N 0 0,0
20.06.2018 22:00:00 16,6 14,4 15,1 5 3 9 5 N 0 0,0
20.06.2018 21:00:00 18,4 15,6 17,4 2 1 8 4 N 0 0,0
20.06.2018 20:00:00 20,0 14,6 19,1 5 3 13 7 NNW 21 0,0
20.06.2018 19:00:00 20,9 14,2 23,6 6 3 21 11 W 44 0,0
20.06.2018 18:00:00 23,4 14,5 26,8 12 6 40 22 ESE 35 0,0
20.06.2018 17:00:00 25,7 13,7 31,2 11 6 28 15 SSW 59 0,0
20.06.2018 16:00:00 25,3 14,1 30,8 10 5 32 17 WNW 58 0,0
20.06.2018 15:00:00 25,6 14,5 30,9 14 8 33 18 WSW 60 0,0
20.06.2018 14:00:00 25,5 13,9 31,0 16 8 26 14 SW 60 0,0
20.06.2018 13:00:00 24,8 15,2 29,5 12 7 22 12 S 60 0,0
20.06.2018 12:00:00 23,1 14,4 28,2 8 5 16 9 S 60 0,0
20.06.2018 11:00:00 21,6 13,2 26,1 5 3 11 6 S 60 0,0
20.06.2018 10:00:00 19,4 13,5 23,0 2 1 5 3 WSW 60 0,0
20.06.2018 09:00:00 16,5 12,5 18,4 1 1 4 2 S 60 0,0
20.06.2018 08:00:00 13,5 11,9 13,7 0 0 4 2 SE 42 0,0
20.06.2018 07:00:00 11,5 10,8 10,3 2 1 6 4 NNW 0 0,0
20.06.2018 06:00:00 11,6 10,5 9,6 0 0 5 3 NE 0 0,0
20.06.2018 05:00:00 11,5 10,7 9,8 1 0 8 4 ESE 0 0,0
20.06.2018 04:00:00 12,0 11,1 10,8 5 3 10 6 N 0 0,0
20.06.2018 03:00:00 13,1 11,6 11,1 6 3 9 5 N 0 0,0
20.06.2018 02:00:00 12,8 11,8 11,2 3 2 7 4 N 0 0,0
20.06.2018 01:00:00 13,3 12,0 11,9 5 3 9 5 N 0 0,0
20.06.2018 00:00:00 15,3 12,5 12,6 6 3 10 5 N 0 0,0
19.06.2018 23:00:00 15,2 12,7 13,5 6 3 12 6 N 0 0,0
19.06.2018 22:00:00 16,4 13,2 14,6 8 4 11 6 N 0 0,0
19.06.2018 21:00:00 19,0 13,7 16,5 4 2 13 7 ENE 0 0,0
19.06.2018 20:00:00 19,7 14,6 18,8 4 2 16 9 N 9 0,0
19.06.2018 19:00:00 22,4 12,7 25,1 11 6 32 17 NW 59 0,0
19.06.2018 18:00:00 23,2 13,6 27,0 13 7 29 16 W 60 0,0
19.06.2018 17:00:00 23,7 14,2 28,5 12 7 29 15 SW 60 0,0
19.06.2018 16:00:00 23,4 14,5 28,6 14 7 29 16 SW 60 0,0
19.06.2018 15:00:00 23,6 14,7 28,8 13 7 26 14 SW 60 0,0

tt = Température de l'air
td = dewpoint
tt 5cm = Température de l'air 5cm
ff = Vitesse du vent
fx = gusts
dd = Direction du vent
sd = Ensoleillement
rr = Quantités de précipitations

stations d'obs. à proximité